sensor_id;sensor_type;location;lat;lon;timestamp;P1;durP1;ratioP1;P2;durP2;ratioP2
10481;SDS011;5288;42.334;23.876;2023-05-29T00:01:53;9.83;;;8.77;;
10481;SDS011;5288;42.334;23.876;2023-05-29T00:04:20;9.97;;;8.30;;
10481;SDS011;5288;42.334;23.876;2023-05-29T00:06:47;15.13;;;9.13;;
10481;SDS011;5288;42.334;23.876;2023-05-29T00:09:15;9.60;;;8.70;;
10481;SDS011;5288;42.334;23.876;2023-05-29T00:11:42;9.90;;;8.53;;
10481;SDS011;5288;42.334;23.876;2023-05-29T00:14:13;11.50;;;9.20;;
10481;SDS011;5288;42.334;23.876;2023-05-29T00:16:41;10.33;;;9.30;;
10481;SDS011;5288;42.334;23.876;2023-05-29T00:19:11;11.83;;;8.93;;
10481;SDS011;5288;42.334;23.876;2023-05-29T00:21:39;9.30;;;8.37;;
10481;SDS011;5288;42.334;23.876;2023-05-29T00:24:06;11.00;;;8.73;;
10481;SDS011;5288;42.334;23.876;2023-05-29T00:26:33;14.13;;;8.93;;
10481;SDS011;5288;42.334;23.876;2023-05-29T00:29:00;13.20;;;9.03;;
10481;SDS011;5288;42.334;23.876;2023-05-29T00:31:28;11.53;;;9.43;;
10481;SDS011;5288;42.334;23.876;2023-05-29T00:33:55;8.97;;;8.00;;
10481;SDS011;5288;42.334;23.876;2023-05-29T00:36:22;11.10;;;8.67;;
10481;SDS011;5288;42.334;23.876;2023-05-29T00:38:49;11.13;;;8.27;;
10481;SDS011;5288;42.334;23.876;2023-05-29T00:41:16;11.40;;;8.73;;
10481;SDS011;5288;42.334;23.876;2023-05-29T00:43:43;13.17;;;8.67;;
10481;SDS011;5288;42.334;23.876;2023-05-29T00:46:10;14.67;;;8.93;;
10481;SDS011;5288;42.334;23.876;2023-05-29T00:48:41;13.60;;;8.77;;
10481;SDS011;5288;42.334;23.876;2023-05-29T00:51:09;11.53;;;10.30;;
10481;SDS011;5288;42.334;23.876;2023-05-29T00:53:38;8.93;;;8.10;;
10481;SDS011;5288;42.334;23.876;2023-05-29T00:56:06;14.97;;;8.70;;
10481;SDS011;5288;42.334;23.876;2023-05-29T00:58:33;8.87;;;7.40;;
10481;SDS011;5288;42.334;23.876;2023-05-29T01:01:00;13.13;;;7.60;;
10481;SDS011;5288;42.334;23.876;2023-05-29T01:03:28;13.63;;;7.63;;
10481;SDS011;5288;42.334;23.876;2023-05-29T01:05:58;11.53;;;6.97;;
10481;SDS011;5288;42.334;23.876;2023-05-29T01:08:25;9.30;;;6.90;;
10481;SDS011;5288;42.334;23.876;2023-05-29T01:10:53;8.73;;;7.30;;
10481;SDS011;5288;42.334;23.876;2023-05-29T01:13:27;13.03;;;8.53;;
10481;SDS011;5288;42.334;23.876;2023-05-29T01:16:00;9.60;;;8.60;;
10481;SDS011;5288;42.334;23.876;2023-05-29T01:18:35;12.53;;;8.47;;
10481;SDS011;5288;42.334;23.876;2023-05-29T01:21:09;9.07;;;8.20;;
10481;SDS011;5288;42.334;23.876;2023-05-29T01:23:50;14.93;;;7.83;;
10481;SDS011;5288;42.334;23.876;2023-05-29T01:29:12;10.27;;;8.70;;
10481;SDS011;5288;42.334;23.876;2023-05-29T01:31:42;15.93;;;9.03;;
10481;SDS011;5288;42.334;23.876;2023-05-29T01:34:11;15.20;;;9.03;;
10481;SDS011;5288;42.334;23.876;2023-05-29T01:36:38;16.30;;;9.33;;
10481;SDS011;5288;42.334;23.876;2023-05-29T01:39:05;10.40;;;9.30;;
10481;SDS011;5288;42.334;23.876;2023-05-29T01:41:32;11.83;;;9.87;;
10481;SDS011;5288;42.334;23.876;2023-05-29T01:44:03;15.83;;;10.57;;
10481;SDS011;5288;42.334;23.876;2023-05-29T01:46:33;13.73;;;10.80;;
10481;SDS011;5288;42.334;23.876;2023-05-29T01:49:03;12.13;;;9.87;;
10481;SDS011;5288;42.334;23.876;2023-05-29T01:51:31;11.30;;;10.10;;
10481;SDS011;5288;42.334;23.876;2023-05-29T01:53:58;17.00;;;11.30;;
10481;SDS011;5288;42.334;23.876;2023-05-29T01:56:26;12.27;;;10.87;;
10481;SDS011;5288;42.334;23.876;2023-05-29T01:58:54;16.83;;;11.73;;
10481;SDS011;5288;42.334;23.876;2023-05-29T02:01:23;16.03;;;11.90;;
10481;SDS011;5288;42.334;23.876;2023-05-29T02:03:51;14.90;;;12.50;;
10481;SDS011;5288;42.334;23.876;2023-05-29T02:06:18;16.73;;;11.63;;
10481;SDS011;5288;42.334;23.876;2023-05-29T02:08:45;14.50;;;11.10;;
10481;SDS011;5288;42.334;23.876;2023-05-29T02:11:12;15.80;;;11.30;;
10481;SDS011;5288;42.334;23.876;2023-05-29T02:13:41;14.20;;;11.57;;
10481;SDS011;5288;42.334;23.876;2023-05-29T02:16:08;11.67;;;10.47;;
10481;SDS011;5288;42.334;23.876;2023-05-29T02:18:36;16.63;;;11.33;;
10481;SDS011;5288;42.334;23.876;2023-05-29T02:21:03;11.77;;;10.57;;
10481;SDS011;5288;42.334;23.876;2023-05-29T02:23:31;14.73;;;10.37;;
10481;SDS011;5288;42.334;23.876;2023-05-29T02:25:57;11.27;;;10.03;;
10481;SDS011;5288;42.334;23.876;2023-05-29T02:28:24;10.90;;;9.13;;
10481;SDS011;5288;42.334;23.876;2023-05-29T02:30:51;11.67;;;9.20;;
10481;SDS011;5288;42.334;23.876;2023-05-29T02:33:19;12.30;;;9.30;;
10481;SDS011;5288;42.334;23.876;2023-05-29T02:35:47;11.20;;;8.60;;
10481;SDS011;5288;42.334;23.876;2023-05-29T02:38:14;11.90;;;8.50;;
10481;SDS011;5288;42.334;23.876;2023-05-29T02:40:41;12.90;;;8.60;;
10481;SDS011;5288;42.334;23.876;2023-05-29T02:43:09;10.43;;;8.93;;
10481;SDS011;5288;42.334;23.876;2023-05-29T02:45:38;12.70;;;8.70;;
10481;SDS011;5288;42.334;23.876;2023-05-29T02:48:05;14.97;;;10.00;;
10481;SDS011;5288;42.334;23.876;2023-05-29T02:50:32;11.50;;;9.73;;
10481;SDS011;5288;42.334;23.876;2023-05-29T02:53:01;13.43;;;9.73;;
10481;SDS011;5288;42.334;23.876;2023-05-29T02:55:28;15.83;;;9.97;;
10481;SDS011;5288;42.334;23.876;2023-05-29T02:57:57;10.93;;;9.67;;
10481;SDS011;5288;42.334;23.876;2023-05-29T03:00:25;25.43;;;11.30;;
10481;SDS011;5288;42.334;23.876;2023-05-29T03:02:53;9.07;;;8.17;;
10481;SDS011;5288;42.334;23.876;2023-05-29T03:05:20;11.83;;;9.90;;
10481;SDS011;5288;42.334;23.876;2023-05-29T03:07:47;12.00;;;9.10;;
10481;SDS011;5288;42.334;23.876;2023-05-29T03:10:16;13.53;;;10.13;;
10481;SDS011;5288;42.334;23.876;2023-05-29T03:12:43;21.33;;;9.67;;
10481;SDS011;5288;42.334;23.876;2023-05-29T03:15:11;14.77;;;9.70;;
10481;SDS011;5288;42.334;23.876;2023-05-29T03:17:38;19.37;;;11.10;;
10481;SDS011;5288;42.334;23.876;2023-05-29T03:20:05;16.00;;;10.30;;
10481;SDS011;5288;42.334;23.876;2023-05-29T03:22:33;17.30;;;12.30;;
10481;SDS011;5288;42.334;23.876;2023-05-29T03:25:01;11.03;;;10.03;;
10481;SDS011;5288;42.334;23.876;2023-05-29T03:27:30;12.63;;;9.57;;
10481;SDS011;5288;42.334;23.876;2023-05-29T03:29:58;12.10;;;9.40;;
10481;SDS011;5288;42.334;23.876;2023-05-29T03:32:25;10.97;;;9.77;;
10481;SDS011;5288;42.334;23.876;2023-05-29T03:34:52;13.53;;;10.60;;
10481;SDS011;5288;42.334;23.876;2023-05-29T03:37:19;13.80;;;9.67;;
10481;SDS011;5288;42.334;23.876;2023-05-29T03:39:46;13.87;;;11.67;;
10481;SDS011;5288;42.334;23.876;2023-05-29T03:42:13;13.00;;;11.60;;
10481;SDS011;5288;42.334;23.876;2023-05-29T03:44:41;12.10;;;10.83;;
10481;SDS011;5288;42.334;23.876;2023-05-29T03:47:08;11.20;;;9.70;;
10481;SDS011;5288;42.334;23.876;2023-05-29T03:49:35;13.50;;;9.67;;
10481;SDS011;5288;42.334;23.876;2023-05-29T03:52:02;13.40;;;9.07;;
10481;SDS011;5288;42.334;23.876;2023-05-29T03:54:30;10.53;;;9.37;;
10481;SDS011;5288;42.334;23.876;2023-05-29T03:56:57;10.30;;;9.30;;
10481;SDS011;5288;42.334;23.876;2023-05-29T03:59:24;12.90;;;9.23;;
10481;SDS011;5288;42.334;23.876;2023-05-29T04:01:52;10.33;;;9.20;;
10481;SDS011;5288;42.334;23.876;2023-05-29T04:04:19;11.23;;;10.13;;
10481;SDS011;5288;42.334;23.876;2023-05-29T04:06:46;14.67;;;10.13;;
10481;SDS011;5288;42.334;23.876;2023-05-29T04:09:13;13.27;;;9.73;;
10481;SDS011;5288;42.334;23.876;2023-05-29T04:11:40;11.40;;;9.20;;
10481;SDS011;5288;42.334;23.876;2023-05-29T04:14:09;11.70;;;8.77;;
10481;SDS011;5288;42.334;23.876;2023-05-29T04:16:36;11.40;;;9.30;;
10481;SDS011;5288;42.334;23.876;2023-05-29T04:19:04;12.33;;;9.37;;
10481;SDS011;5288;42.334;23.876;2023-05-29T04:21:31;12.70;;;10.00;;
10481;SDS011;5288;42.334;23.876;2023-05-29T04:23:59;14.07;;;9.20;;
10481;SDS011;5288;42.334;23.876;2023-05-29T04:26:26;9.70;;;8.70;;
10481;SDS011;5288;42.334;23.876;2023-05-29T04:28:53;13.77;;;9.50;;
10481;SDS011;5288;42.334;23.876;2023-05-29T04:31:22;23.00;;;15.47;;
10481;SDS011;5288;42.334;23.876;2023-05-29T04:33:50;11.00;;;9.30;;
10481;SDS011;5288;42.334;23.876;2023-05-29T04:36:21;13.57;;;9.00;;
10481;SDS011;5288;42.334;23.876;2023-05-29T04:38:51;11.43;;;8.83;;
10481;SDS011;5288;42.334;23.876;2023-05-29T04:41:18;10.17;;;8.97;;
10481;SDS011;5288;42.334;23.876;2023-05-29T04:43:48;10.97;;;8.97;;
10481;SDS011;5288;42.334;23.876;2023-05-29T04:46:17;11.20;;;8.50;;
10481;SDS011;5288;42.334;23.876;2023-05-29T04:48:44;11.50;;;8.80;;
10481;SDS011;5288;42.334;23.876;2023-05-29T04:51:11;11.73;;;8.67;;
10481;SDS011;5288;42.334;23.876;2023-05-29T04:53:39;12.43;;;8.23;;
10481;SDS011;5288;42.334;23.876;2023-05-29T04:56:07;15.83;;;8.60;;
10481;SDS011;5288;42.334;23.876;2023-05-29T04:58:34;8.90;;;8.00;;
10481;SDS011;5288;42.334;23.876;2023-05-29T05:01:01;12.07;;;7.73;;
10481;SDS011;5288;42.334;23.876;2023-05-29T05:03:28;11.53;;;7.63;;
10481;SDS011;5288;42.334;23.876;2023-05-29T05:05:58;9.00;;;7.30;;
10481;SDS011;5288;42.334;23.876;2023-05-29T05:08:27;11.90;;;6.87;;
10481;SDS011;5288;42.334;23.876;2023-05-29T05:10:56;8.03;;;6.37;;
10481;SDS011;5288;42.334;23.876;2023-05-29T05:13:24;8.73;;;6.60;;
10481;SDS011;5288;42.334;23.876;2023-05-29T05:15:51;8.63;;;6.20;;
10481;SDS011;5288;42.334;23.876;2023-05-29T05:18:18;8.83;;;6.57;;
10481;SDS011;5288;42.334;23.876;2023-05-29T05:20:45;8.27;;;6.50;;
10481;SDS011;5288;42.334;23.876;2023-05-29T05:23:12;8.03;;;6.47;;
10481;SDS011;5288;42.334;23.876;2023-05-29T05:25:39;8.27;;;6.40;;
10481;SDS011;5288;42.334;23.876;2023-05-29T05:28:07;13.63;;;7.03;;
10481;SDS011;5288;42.334;23.876;2023-05-29T05:30:34;10.27;;;8.87;;
10481;SDS011;5288;42.334;23.876;2023-05-29T05:33:01;12.60;;;8.53;;
10481;SDS011;5288;42.334;23.876;2023-05-29T05:35:29;14.53;;;7.00;;
10481;SDS011;5288;42.334;23.876;2023-05-29T05:37:56;8.53;;;7.20;;
10481;SDS011;5288;42.334;23.876;2023-05-29T05:40:23;7.30;;;6.27;;
10481;SDS011;5288;42.334;23.876;2023-05-29T05:42:51;12.60;;;6.33;;
10481;SDS011;5288;42.334;23.876;2023-05-29T05:45:19;9.07;;;6.57;;
10481;SDS011;5288;42.334;23.876;2023-05-29T05:47:46;5.70;;;5.20;;
10481;SDS011;5288;42.334;23.876;2023-05-29T05:50:13;8.67;;;5.13;;
10481;SDS011;5288;42.334;23.876;2023-05-29T05:52:40;8.90;;;5.70;;
10481;SDS011;5288;42.334;23.876;2023-05-29T05:55:08;11.73;;;5.83;;
10481;SDS011;5288;42.334;23.876;2023-05-29T05:57:35;8.07;;;5.53;;
10481;SDS011;5288;42.334;23.876;2023-05-29T06:00:02;5.97;;;5.17;;
10481;SDS011;5288;42.334;23.876;2023-05-29T06:02:33;6.13;;;5.53;;
10481;SDS011;5288;42.334;23.876;2023-05-29T06:05:00;5.10;;;4.70;;
10481;SDS011;5288;42.334;23.876;2023-05-29T06:07:27;7.20;;;6.50;;
10481;SDS011;5288;42.334;23.876;2023-05-29T06:09:54;6.77;;;6.10;;
10481;SDS011;5288;42.334;23.876;2023-05-29T06:12:21;8.83;;;5.10;;
10481;SDS011;5288;42.334;23.876;2023-05-29T06:14:48;14.20;;;5.60;;
10481;SDS011;5288;42.334;23.876;2023-05-29T06:17:15;12.63;;;5.33;;
10481;SDS011;5288;42.334;23.876;2023-05-29T06:19:44;8.30;;;5.00;;
10481;SDS011;5288;42.334;23.876;2023-05-29T06:22:11;5.27;;;4.30;;
10481;SDS011;5288;42.334;23.876;2023-05-29T06:24:37;8.83;;;4.83;;
10481;SDS011;5288;42.334;23.876;2023-05-29T06:27:04;9.93;;;4.73;;
10481;SDS011;5288;42.334;23.876;2023-05-29T06:29:32;7.70;;;4.70;;
10481;SDS011;5288;42.334;23.876;2023-05-29T06:31:59;4.50;;;4.10;;
10481;SDS011;5288;42.334;23.876;2023-05-29T06:34:25;6.03;;;4.83;;
10481;SDS011;5288;42.334;23.876;2023-05-29T06:36:54;6.20;;;4.47;;
10481;SDS011;5288;42.334;23.876;2023-05-29T06:39:21;5.83;;;4.40;;
10481;SDS011;5288;42.334;23.876;2023-05-29T06:41:48;4.97;;;4.07;;
10481;SDS011;5288;42.334;23.876;2023-05-29T06:44:15;7.00;;;4.43;;
10481;SDS011;5288;42.334;23.876;2023-05-29T06:46:41;7.43;;;3.90;;
10481;SDS011;5288;42.334;23.876;2023-05-29T06:49:08;4.03;;;3.63;;
10481;SDS011;5288;42.334;23.876;2023-05-29T06:51:35;5.07;;;3.50;;
10481;SDS011;5288;42.334;23.876;2023-05-29T06:54:04;4.83;;;3.37;;
10481;SDS011;5288;42.334;23.876;2023-05-29T06:56:31;4.40;;;3.40;;
10481;SDS011;5288;42.334;23.876;2023-05-29T06:58:58;10.40;;;4.10;;
10481;SDS011;5288;42.334;23.876;2023-05-29T07:01:25;35.93;;;6.63;;
10481;SDS011;5288;42.334;23.876;2023-05-29T07:03:52;7.37;;;3.97;;
10481;SDS011;5288;42.334;23.876;2023-05-29T07:06:20;11.63;;;3.83;;
10481;SDS011;5288;42.334;23.876;2023-05-29T07:08:47;6.47;;;4.17;;
10481;SDS011;5288;42.334;23.876;2023-05-29T07:11:15;13.83;;;4.33;;
10481;SDS011;5288;42.334;23.876;2023-05-29T07:13:42;5.80;;;3.80;;
10481;SDS011;5288;42.334;23.876;2023-05-29T07:16:09;6.57;;;3.60;;
10481;SDS011;5288;42.334;23.876;2023-05-29T07:18:36;6.67;;;3.60;;
10481;SDS011;5288;42.334;23.876;2023-05-29T07:21:03;4.63;;;3.43;;
10481;SDS011;5288;42.334;23.876;2023-05-29T07:23:31;4.90;;;3.63;;
10481;SDS011;5288;42.334;23.876;2023-05-29T07:25:58;8.43;;;3.90;;
10481;SDS011;5288;42.334;23.876;2023-05-29T07:28:26;4.40;;;3.50;;
10481;SDS011;5288;42.334;23.876;2023-05-29T07:30:53;3.80;;;3.03;;
10481;SDS011;5288;42.334;23.876;2023-05-29T07:33:21;4.80;;;3.67;;
10481;SDS011;5288;42.334;23.876;2023-05-29T07:35:48;6.00;;;3.50;;
10481;SDS011;5288;42.334;23.876;2023-05-29T07:38:15;10.37;;;3.40;;
10481;SDS011;5288;42.334;23.876;2023-05-29T07:40:42;5.87;;;3.70;;
10481;SDS011;5288;42.334;23.876;2023-05-29T07:43:09;3.87;;;3.40;;
10481;SDS011;5288;42.334;23.876;2023-05-29T07:45:37;7.80;;;3.53;;
10481;SDS011;5288;42.334;23.876;2023-05-29T07:48:04;5.27;;;3.60;;
10481;SDS011;5288;42.334;23.876;2023-05-29T07:50:31;5.93;;;3.20;;
10481;SDS011;5288;42.334;23.876;2023-05-29T07:52:59;4.97;;;3.10;;
10481;SDS011;5288;42.334;23.876;2023-05-29T07:55:25;3.87;;;3.13;;
10481;SDS011;5288;42.334;23.876;2023-05-29T07:57:52;6.23;;;3.70;;
10481;SDS011;5288;42.334;23.876;2023-05-29T08:00:19;4.30;;;3.40;;
10481;SDS011;5288;42.334;23.876;2023-05-29T08:02:48;7.57;;;3.30;;
10481;SDS011;5288;42.334;23.876;2023-05-29T08:05:15;4.73;;;3.43;;
10481;SDS011;5288;42.334;23.876;2023-05-29T08:07:44;3.47;;;3.17;;
10481;SDS011;5288;42.334;23.876;2023-05-29T08:10:12;8.60;;;3.70;;
10481;SDS011;5288;42.334;23.876;2023-05-29T08:12:39;4.80;;;3.40;;
10481;SDS011;5288;42.334;23.876;2023-05-29T08:15:06;7.73;;;3.27;;
10481;SDS011;5288;42.334;23.876;2023-05-29T08:17:34;3.97;;;3.03;;
10481;SDS011;5288;42.334;23.876;2023-05-29T08:20:02;4.37;;;3.33;;
10481;SDS011;5288;42.334;23.876;2023-05-29T08:22:34;5.43;;;3.10;;
10481;SDS011;5288;42.334;23.876;2023-05-29T08:25:01;4.67;;;2.90;;
10481;SDS011;5288;42.334;23.876;2023-05-29T08:27:28;6.47;;;3.40;;
10481;SDS011;5288;42.334;23.876;2023-05-29T08:29:56;5.40;;;3.33;;
10481;SDS011;5288;42.334;23.876;2023-05-29T08:32:22;6.17;;;3.07;;
10481;SDS011;5288;42.334;23.876;2023-05-29T08:34:50;6.60;;;3.60;;
10481;SDS011;5288;42.334;23.876;2023-05-29T08:37:18;6.97;;;3.70;;
10481;SDS011;5288;42.334;23.876;2023-05-29T08:39:45;5.57;;;3.60;;
10481;SDS011;5288;42.334;23.876;2023-05-29T08:42:13;50.67;;;9.27;;
10481;SDS011;5288;42.334;23.876;2023-05-29T08:44:47;11.17;;;4.33;;
10481;SDS011;5288;42.334;23.876;2023-05-29T08:47:15;9.40;;;3.73;;
10481;SDS011;5288;42.334;23.876;2023-05-29T08:49:45;16.90;;;5.30;;
10481;SDS011;5288;42.334;23.876;2023-05-29T08:52:23;12.40;;;3.60;;
10481;SDS011;5288;42.334;23.876;2023-05-29T08:54:52;3.63;;;3.03;;
10481;SDS011;5288;42.334;23.876;2023-05-29T08:57:19;22.70;;;4.63;;
10481;SDS011;5288;42.334;23.876;2023-05-29T08:59:47;14.13;;;4.20;;
10481;SDS011;5288;42.334;23.876;2023-05-29T09:02:17;4.43;;;3.30;;
10481;SDS011;5288;42.334;23.876;2023-05-29T09:04:45;8.90;;;4.10;;
10481;SDS011;5288;42.334;23.876;2023-05-29T09:07:14;5.70;;;3.40;;
10481;SDS011;5288;42.334;23.876;2023-05-29T09:09:42;3.33;;;3.00;;
10481;SDS011;5288;42.334;23.876;2023-05-29T09:12:10;7.30;;;3.00;;
10481;SDS011;5288;42.334;23.876;2023-05-29T09:14:38;3.77;;;3.37;;
10481;SDS011;5288;42.334;23.876;2023-05-29T09:17:07;4.87;;;3.43;;
10481;SDS011;5288;42.334;23.876;2023-05-29T09:19:37;6.37;;;3.87;;
10481;SDS011;5288;42.334;23.876;2023-05-29T09:22:06;11.57;;;4.40;;
10481;SDS011;5288;42.334;23.876;2023-05-29T09:24:35;12.03;;;5.40;;
10481;SDS011;5288;42.334;23.876;2023-05-29T09:27:05;11.43;;;4.73;;
10481;SDS011;5288;42.334;23.876;2023-05-29T09:29:33;10.43;;;4.37;;
10481;SDS011;5288;42.334;23.876;2023-05-29T09:32:06;10.57;;;4.87;;
10481;SDS011;5288;42.334;23.876;2023-05-29T09:34:35;13.97;;;4.97;;
10481;SDS011;5288;42.334;23.876;2023-05-29T09:37:02;8.03;;;4.93;;
10481;SDS011;5288;42.334;23.876;2023-05-29T09:39:34;6.53;;;4.43;;
10481;SDS011;5288;42.334;23.876;2023-05-29T09:42:11;8.20;;;4.73;;
10481;SDS011;5288;42.334;23.876;2023-05-29T09:44:39;10.53;;;4.77;;
10481;SDS011;5288;42.334;23.876;2023-05-29T09:47:06;8.53;;;5.13;;
10481;SDS011;5288;42.334;23.876;2023-05-29T09:49:34;7.70;;;4.93;;
10481;SDS011;5288;42.334;23.876;2023-05-29T09:52:03;7.70;;;3.80;;
10481;SDS011;5288;42.334;23.876;2023-05-29T09:54:34;4.97;;;4.37;;
10481;SDS011;5288;42.334;23.876;2023-05-29T09:57:01;7.23;;;4.00;;
10481;SDS011;5288;42.334;23.876;2023-05-29T09:59:32;8.67;;;4.13;;
10481;SDS011;5288;42.334;23.876;2023-05-29T10:02:01;8.90;;;4.20;;
10481;SDS011;5288;42.334;23.876;2023-05-29T10:04:29;6.20;;;4.13;;
10481;SDS011;5288;42.334;23.876;2023-05-29T10:06:57;6.13;;;3.70;;
10481;SDS011;5288;42.334;23.876;2023-05-29T10:09:30;3.63;;;3.30;;
10481;SDS011;5288;42.334;23.876;2023-05-29T10:12:00;11.27;;;3.37;;
10481;SDS011;5288;42.334;23.876;2023-05-29T10:14:34;3.73;;;2.97;;
10481;SDS011;5288;42.334;23.876;2023-05-29T10:17:02;3.30;;;3.00;;
10481;SDS011;5288;42.334;23.876;2023-05-29T10:19:34;4.47;;;3.20;;
10481;SDS011;5288;42.334;23.876;2023-05-29T10:22:03;6.13;;;3.70;;
10481;SDS011;5288;42.334;23.876;2023-05-29T10:24:31;4.60;;;3.70;;
10481;SDS011;5288;42.334;23.876;2023-05-29T10:26:58;4.47;;;3.50;;
10481;SDS011;5288;42.334;23.876;2023-05-29T10:29:27;5.40;;;3.70;;
10481;SDS011;5288;42.334;23.876;2023-05-29T10:32:04;4.23;;;3.87;;
10481;SDS011;5288;42.334;23.876;2023-05-29T10:34:40;4.40;;;3.63;;
10481;SDS011;5288;42.334;23.876;2023-05-29T10:37:15;5.90;;;3.60;;
10481;SDS011;5288;42.334;23.876;2023-05-29T10:39:51;7.83;;;3.97;;
10481;SDS011;5288;42.334;23.876;2023-05-29T10:45:07;4.30;;;3.63;;
10481;SDS011;5288;42.334;23.876;2023-05-29T10:47:36;5.70;;;3.17;;
10481;SDS011;5288;42.334;23.876;2023-05-29T10:50:04;4.43;;;3.43;;
10481;SDS011;5288;42.334;23.876;2023-05-29T10:52:31;4.07;;;3.33;;
10481;SDS011;5288;42.334;23.876;2023-05-29T10:54:59;9.23;;;3.33;;
10481;SDS011;5288;42.334;23.876;2023-05-29T10:57:29;3.23;;;2.93;;
10481;SDS011;5288;42.334;23.876;2023-05-29T11:00:05;5.20;;;3.23;;
10481;SDS011;5288;42.334;23.876;2023-05-29T11:02:45;6.67;;;3.53;;
10481;SDS011;5288;42.334;23.876;2023-05-29T11:05:19;4.77;;;2.83;;
10481;SDS011;5288;42.334;23.876;2023-05-29T11:07:50;4.33;;;2.60;;
10481;SDS011;5288;42.334;23.876;2023-05-29T11:13:13;6.33;;;2.83;;
10481;SDS011;5288;42.334;23.876;2023-05-29T11:16:03;3.93;;;2.63;;
10481;SDS011;5288;42.334;23.876;2023-05-29T11:18:39;4.07;;;3.10;;
10481;SDS011;5288;42.334;23.876;2023-05-29T11:21:11;3.23;;;2.80;;
10481;SDS011;5288;42.334;23.876;2023-05-29T11:23:55;2.83;;;2.40;;
10481;SDS011;5288;42.334;23.876;2023-05-29T11:26:25;10.40;;;3.30;;
10481;SDS011;5288;42.334;23.876;2023-05-29T11:28:53;7.30;;;3.37;;
10481;SDS011;5288;42.334;23.876;2023-05-29T11:31:24;4.13;;;2.87;;
10481;SDS011;5288;42.334;23.876;2023-05-29T11:33:54;3.10;;;2.80;;
10481;SDS011;5288;42.334;23.876;2023-05-29T11:36:25;4.57;;;3.33;;
10481;SDS011;5288;42.334;23.876;2023-05-29T11:38:53;4.33;;;3.00;;
10481;SDS011;5288;42.334;23.876;2023-05-29T11:41:20;5.47;;;3.00;;
10481;SDS011;5288;42.334;23.876;2023-05-29T11:43:55;3.67;;;2.90;;
10481;SDS011;5288;42.334;23.876;2023-05-29T11:46:23;3.53;;;3.23;;
10481;SDS011;5288;42.334;23.876;2023-05-29T11:48:51;6.43;;;3.40;;
10481;SDS011;5288;42.334;23.876;2023-05-29T11:51:20;3.57;;;3.20;;
10481;SDS011;5288;42.334;23.876;2023-05-29T11:53:47;7.10;;;3.37;;
10481;SDS011;5288;42.334;23.876;2023-05-29T11:56:18;10.10;;;3.40;;
10481;SDS011;5288;42.334;23.876;2023-05-29T11:58:46;13.97;;;4.83;;
10481;SDS011;5288;42.334;23.876;2023-05-29T12:01:16;11.37;;;4.47;;
10481;SDS011;5288;42.334;23.876;2023-05-29T12:03:44;8.83;;;3.83;;
10481;SDS011;5288;42.334;23.876;2023-05-29T12:06:12;19.83;;;10.63;;
10481;SDS011;5288;42.334;23.876;2023-05-29T12:08:39;11.00;;;4.43;;
10481;SDS011;5288;42.334;23.876;2023-05-29T12:11:06;5.20;;;3.33;;
10481;SDS011;5288;42.334;23.876;2023-05-29T12:13:35;8.73;;;3.60;;
10481;SDS011;5288;42.334;23.876;2023-05-29T12:16:03;5.33;;;3.00;;
10481;SDS011;5288;42.334;23.876;2023-05-29T12:18:31;3.63;;;3.30;;
10481;SDS011;5288;42.334;23.876;2023-05-29T12:20:59;3.37;;;3.00;;
10481;SDS011;5288;42.334;23.876;2023-05-29T12:23:29;2.87;;;2.63;;
10481;SDS011;5288;42.334;23.876;2023-05-29T12:25:56;5.90;;;3.00;;
10481;SDS011;5288;42.334;23.876;2023-05-29T12:28:25;3.33;;;3.03;;
10481;SDS011;5288;42.334;23.876;2023-05-29T12:30:57;2.70;;;2.50;;
10481;SDS011;5288;42.334;23.876;2023-05-29T12:33:25;3.80;;;2.90;;
10481;SDS011;5288;42.334;23.876;2023-05-29T12:35:54;8.60;;;3.77;;
10481;SDS011;5288;42.334;23.876;2023-05-29T12:38:28;8.27;;;7.23;;
10481;SDS011;5288;42.334;23.876;2023-05-29T12:40:55;3.87;;;2.90;;
10481;SDS011;5288;42.334;23.876;2023-05-29T12:43:22;5.57;;;3.10;;
10481;SDS011;5288;42.334;23.876;2023-05-29T12:45:53;4.17;;;2.63;;
10481;SDS011;5288;42.334;23.876;2023-05-29T12:48:25;5.00;;;2.83;;
10481;SDS011;5288;42.334;23.876;2023-05-29T12:50:53;5.03;;;2.80;;
10481;SDS011;5288;42.334;23.876;2023-05-29T12:53:20;3.63;;;2.50;;
10481;SDS011;5288;42.334;23.876;2023-05-29T12:55:48;3.90;;;3.23;;
10481;SDS011;5288;42.334;23.876;2023-05-29T12:58:15;8.20;;;3.20;;
10481;SDS011;5288;42.334;23.876;2023-05-29T13:00:42;4.47;;;3.57;;
10481;SDS011;5288;42.334;23.876;2023-05-29T13:03:10;4.00;;;3.27;;
10481;SDS011;5288;42.334;23.876;2023-05-29T13:05:37;5.23;;;3.43;;
10481;SDS011;5288;42.334;23.876;2023-05-29T13:08:05;5.27;;;2.97;;
10481;SDS011;5288;42.334;23.876;2023-05-29T13:10:33;6.67;;;3.40;;
10481;SDS011;5288;42.334;23.876;2023-05-29T13:13:02;7.50;;;2.93;;
10481;SDS011;5288;42.334;23.876;2023-05-29T13:15:29;3.40;;;2.77;;
10481;SDS011;5288;42.334;23.876;2023-05-29T13:17:57;4.67;;;3.10;;
10481;SDS011;5288;42.334;23.876;2023-05-29T13:20:24;6.00;;;3.33;;
10481;SDS011;5288;42.334;23.876;2023-05-29T13:22:51;6.47;;;2.90;;
10481;SDS011;5288;42.334;23.876;2023-05-29T13:25:19;7.63;;;3.27;;
10481;SDS011;5288;42.334;23.876;2023-05-29T13:27:46;6.07;;;4.30;;
10481;SDS011;5288;42.334;23.876;2023-05-29T13:30:16;3.43;;;3.13;;
10481;SDS011;5288;42.334;23.876;2023-05-29T13:32:43;12.67;;;3.63;;
10481;SDS011;5288;42.334;23.876;2023-05-29T13:35:11;7.10;;;3.47;;
10481;SDS011;5288;42.334;23.876;2023-05-29T13:37:38;5.47;;;3.17;;
10481;SDS011;5288;42.334;23.876;2023-05-29T13:40:06;8.07;;;3.47;;
10481;SDS011;5288;42.334;23.876;2023-05-29T13:42:34;10.27;;;3.53;;
10481;SDS011;5288;42.334;23.876;2023-05-29T13:45:01;4.33;;;3.30;;
10481;SDS011;5288;42.334;23.876;2023-05-29T13:47:32;6.43;;;3.00;;
10481;SDS011;5288;42.334;23.876;2023-05-29T13:50:00;7.67;;;3.23;;
10481;SDS011;5288;42.334;23.876;2023-05-29T13:52:27;4.30;;;3.20;;
10481;SDS011;5288;42.334;23.876;2023-05-29T13:54:54;4.27;;;2.80;;
10481;SDS011;5288;42.334;23.876;2023-05-29T13:57:23;6.33;;;3.03;;
10481;SDS011;5288;42.334;23.876;2023-05-29T13:59:50;2.90;;;2.43;;
10481;SDS011;5288;42.334;23.876;2023-05-29T14:02:17;3.87;;;2.90;;
10481;SDS011;5288;42.334;23.876;2023-05-29T14:04:45;5.43;;;2.87;;
10481;SDS011;5288;42.334;23.876;2023-05-29T14:07:12;6.17;;;3.17;;
10481;SDS011;5288;42.334;23.876;2023-05-29T14:09:39;6.47;;;2.67;;
10481;SDS011;5288;42.334;23.876;2023-05-29T14:12:06;2.50;;;2.30;;
10481;SDS011;5288;42.334;23.876;2023-05-29T14:14:33;2.70;;;2.50;;
10481;SDS011;5288;42.334;23.876;2023-05-29T14:17:00;4.37;;;2.57;;
10481;SDS011;5288;42.334;23.876;2023-05-29T14:19:27;2.97;;;2.60;;
10481;SDS011;5288;42.334;23.876;2023-05-29T14:21:56;3.30;;;2.63;;
10481;SDS011;5288;42.334;23.876;2023-05-29T14:24:24;3.00;;;2.50;;
10481;SDS011;5288;42.334;23.876;2023-05-29T14:26:51;6.37;;;2.27;;
10481;SDS011;5288;42.334;23.876;2023-05-29T14:29:18;3.53;;;1.93;;
10481;SDS011;5288;42.334;23.876;2023-05-29T14:31:45;4.47;;;2.50;;
10481;SDS011;5288;42.334;23.876;2023-05-29T14:34:14;3.53;;;2.50;;
10481;SDS011;5288;42.334;23.876;2023-05-29T14:36:41;6.93;;;2.33;;
10481;SDS011;5288;42.334;23.876;2023-05-29T14:39:11;5.37;;;2.37;;
10481;SDS011;5288;42.334;23.876;2023-05-29T14:41:38;7.27;;;2.63;;
10481;SDS011;5288;42.334;23.876;2023-05-29T14:44:05;2.87;;;2.43;;
10481;SDS011;5288;42.334;23.876;2023-05-29T14:46:32;3.90;;;2.50;;
10481;SDS011;5288;42.334;23.876;2023-05-29T14:49:00;5.63;;;2.57;;
10481;SDS011;5288;42.334;23.876;2023-05-29T14:51:27;2.80;;;2.50;;
10481;SDS011;5288;42.334;23.876;2023-05-29T14:53:54;2.37;;;2.17;;
10481;SDS011;5288;42.334;23.876;2023-05-29T14:56:23;5.90;;;2.77;;